Adventure of The Seas — C6SA3 — position and weather

sailwx.info

Track history (hours):
 
Tides and Currents Weather Stations Pressure Air Temp Water Temp Dewpoint Dewpoint Depression Visibility Wind Speed Wind Dir Waves Ship Positions

Adventure of The Seas

Operator: Royal Caribbean Cruises Ltd

Last reported at 2017-Dec-09 04:14 UTC. Time now 2017-Dec-13 03:38 UTC.
Position N 18°28' W 065°15'.

Type: Passenger vessel. MMSI: 311263000.

Date/timePositionNaut miles runAvg speedWind from/ knotsBaromVisibWave heightAir tempDewpointWater temp
2017-Dec-09 04:14N 18°28' W 065°15'413.8
2017-Dec-09 03:58N 18°25' W 065°12'613.1
2017-Dec-09 03:30N 18°20' W 065°08'713.2
2017-Dec-09 03:00N 18°16' W 065°02'612.8
2017-Dec-09 02:30N 18°12' W 064°57'816.2
2017-Dec-09 02:01N 18°08' W 064°50'917.4
2017-Dec-09 01:30N 18°05' W 064°41'27114.5
2017-Dec-08 06:46N 14°43' W 061°32'814.7
2017-Dec-08 06:12N 14°37' W 061°26'315.2
2017-Dec-08 06:00N 14°35' W 061°24'1016.2
2017-Dec-08 05:23N 14°29' W 061°15'616.6
2017-Dec-08 05:01N 14°26' W 061°10'917.1
2017-Dec-08 04:30N 14°20' W 061°03'817.0
2017-Dec-08 04:01N 14°16' W 060°56'816.8
2017-Dec-08 03:31N 14°10' W 060°50'916.2
2017-Dec-08 02:58N 14°03' W 060°44'30 1.2
2017-Dec-07 01:54N 13°36' W 060°56'  
2017-Dec-03 23:20N 18°09' W 064°37'411.1
2017-Dec-03 22:59N 18°10' W 064°41'611.2
2017-Dec-03 22:30N 18°11' W 064°47'611.2
2017-Dec-03 21:58N 18°13' W 064°53'511.3
2017-Dec-03 21:30N 18°16' W 064°58'4 7.1
2017-Dec-03 21:00N 18°19' W 064°58'1 1.6
2017-Dec-03 20:22N 18°20' W 064°57'0 0.0
2017-Dec-03 19:55N 18°20' W 064°57'0 0.0
2017-Dec-03 19:25N 18°20' W 064°57'0 0.0
2017-Dec-03 18:55N 18°20' W 064°57'0 0.0
2017-Dec-03 18:28N 18°20' W 064°57'0 0.0
2017-Dec-03 13:07N 18°20' W 064°57'0 0.0
2017-Dec-03 12:58N 18°20' W 064°57'0 0.0
2017-Dec-03 11:53N 18°20' W 064°57'1 2.5
2017-Dec-03 11:27N 18°19' W 064°58'  
Track history (hours):
 
Tides and Currents Weather Stations Pressure Air Temp Water Temp Dewpoint Dewpoint Depression Visibility Wind Speed Wind Dir Waves Ship Positions

Adventure of The Seas

Operator: Royal Caribbean Cruises Ltd

Last reported at 2017-Dec-09 04:14 UTC. Time now 2017-Dec-13 03:38 UTC.
Position N 18°28' W 065°15'.

Type: Passenger vessel. MMSI: 311263000.

Date/timePositionNaut miles runAvg speedWind from/ knotsBaromVisibWave heightAir tempDewpointWater temp
2017-Dec-09 04:14N 18°28' W 065°15'413.8
2017-Dec-09 03:58N 18°25' W 065°12'613.1
2017-Dec-09 03:30N 18°20' W 065°08'713.2
2017-Dec-09 03:00N 18°16' W 065°02'612.8
2017-Dec-09 02:30N 18°12' W 064°57'816.2
2017-Dec-09 02:01N 18°08' W 064°50'917.4
2017-Dec-09 01:30N 18°05' W 064°41'27114.5
2017-Dec-08 06:46N 14°43' W 061°32'814.7
2017-Dec-08 06:12N 14°37' W 061°26'315.2
2017-Dec-08 06:00N 14°35' W 061°24'1016.2
2017-Dec-08 05:23N 14°29' W 061°15'616.6
2017-Dec-08 05:01N 14°26' W 061°10'917.1
2017-Dec-08 04:30N 14°20' W 061°03'817.0
2017-Dec-08 04:01N 14°16' W 060°56'816.8
2017-Dec-08 03:31N 14°10' W 060°50'916.2
2017-Dec-08 02:58N 14°03' W 060°44'30 1.2
2017-Dec-07 01:54N 13°36' W 060°56'  
2017-Dec-03 23:20N 18°09' W 064°37'411.1
2017-Dec-03 22:59N 18°10' W 064°41'611.2
2017-Dec-03 22:30N 18°11' W 064°47'611.2
2017-Dec-03 21:58N 18°13' W 064°53'511.3
2017-Dec-03 21:30N 18°16' W 064°58'4 7.1
2017-Dec-03 21:00N 18°19' W 064°58'1 1.6
2017-Dec-03 20:22N 18°20' W 064°57'0 0.0
2017-Dec-03 19:55N 18°20' W 064°57'0 0.0
2017-Dec-03 19:25N 18°20' W 064°57'0 0.0
2017-Dec-03 18:55N 18°20' W 064°57'0 0.0
2017-Dec-03 18:28N 18°20' W 064°57'0 0.0
2017-Dec-03 13:07N 18°20' W 064°57'0 0.0
2017-Dec-03 12:58N 18°20' W 064°57'0 0.0
2017-Dec-03 11:53N 18°20' W 064°57'1 2.5
2017-Dec-03 11:27N 18°19' W 064°58'  

Dump ship's entire track history